sensor_id;sensor_type;location;lat;lon;timestamp;P1;durP1;ratioP1;P2;durP2;ratioP2
56667;SDS011;42542;48.360;10.958;2023-07-31T00:01:37;7.57;;;2.70;;
56667;SDS011;42542;48.360;10.958;2023-07-31T00:04:40;6.80;;;2.25;;
56667;SDS011;42542;48.360;10.958;2023-07-31T00:07:42;8.00;;;2.30;;
56667;SDS011;42542;48.360;10.958;2023-07-31T00:10:45;9.05;;;2.20;;
56667;SDS011;42542;48.360;10.958;2023-07-31T00:13:48;8.85;;;2.30;;
56667;SDS011;42542;48.360;10.958;2023-07-31T00:16:54;6.88;;;2.20;;
56667;SDS011;42542;48.360;10.958;2023-07-31T00:19:59;6.13;;;2.20;;
56667;SDS011;42542;48.360;10.958;2023-07-31T00:23:02;7.65;;;2.17;;
56667;SDS011;42542;48.360;10.958;2023-07-31T00:26:05;8.45;;;2.28;;
56667;SDS011;42542;48.360;10.958;2023-07-31T00:29:10;6.05;;;2.20;;
56667;SDS011;42542;48.360;10.958;2023-07-31T00:32:13;6.60;;;2.20;;
56667;SDS011;42542;48.360;10.958;2023-07-31T00:35:16;5.50;;;2.10;;
56667;SDS011;42542;48.360;10.958;2023-07-31T00:38:18;8.52;;;2.17;;
56667;SDS011;42542;48.360;10.958;2023-07-31T00:41:20;5.82;;;2.10;;
56667;SDS011;42542;48.360;10.958;2023-07-31T00:44:24;9.63;;;2.45;;
56667;SDS011;42542;48.360;10.958;2023-07-31T00:47:29;7.13;;;2.30;;
56667;SDS011;42542;48.360;10.958;2023-07-31T00:50:33;7.23;;;2.37;;
56667;SDS011;42542;48.360;10.958;2023-07-31T00:53:37;8.43;;;2.50;;
56667;SDS011;42542;48.360;10.958;2023-07-31T00:56:41;7.18;;;2.22;;
56667;SDS011;42542;48.360;10.958;2023-07-31T00:59:48;6.55;;;2.20;;
56667;SDS011;42542;48.360;10.958;2023-07-31T01:02:50;8.68;;;2.15;;
56667;SDS011;42542;48.360;10.958;2023-07-31T01:09:20;7.50;;;2.10;;
56667;SDS011;42542;48.360;10.958;2023-07-31T01:12:31;8.60;;;2.30;;
56667;SDS011;42542;48.360;10.958;2023-07-31T01:15:34;8.77;;;2.50;;
56667;SDS011;42542;48.360;10.958;2023-07-31T01:18:40;6.45;;;2.30;;
56667;SDS011;42542;48.360;10.958;2023-07-31T01:32:02;8.60;;;2.50;;
56667;SDS011;42542;48.360;10.958;2023-07-31T01:35:05;6.40;;;2.47;;
56667;SDS011;42542;48.360;10.958;2023-07-31T01:38:09;6.25;;;2.22;;
56667;SDS011;42542;48.360;10.958;2023-07-31T01:41:11;7.00;;;2.47;;
56667;SDS011;42542;48.360;10.958;2023-07-31T01:44:13;8.05;;;2.50;;
56667;SDS011;42542;48.360;10.958;2023-07-31T01:47:16;7.57;;;2.45;;
56667;SDS011;42542;48.360;10.958;2023-07-31T01:50:19;7.63;;;2.47;;
56667;SDS011;42542;48.360;10.958;2023-07-31T01:53:21;7.72;;;2.55;;
56667;SDS011;42542;48.360;10.958;2023-07-31T01:56:29;7.28;;;2.25;;
56667;SDS011;42542;48.360;10.958;2023-07-31T01:59:33;6.18;;;2.35;;
56667;SDS011;42542;48.360;10.958;2023-07-31T02:02:35;8.55;;;2.50;;
56667;SDS011;42542;48.360;10.958;2023-07-31T02:05:48;8.53;;;2.70;;
56667;SDS011;42542;48.360;10.958;2023-07-31T02:08:51;9.05;;;2.40;;
56667;SDS011;42542;48.360;10.958;2023-07-31T02:11:53;6.05;;;2.60;;
56667;SDS011;42542;48.360;10.958;2023-07-31T02:14:58;6.70;;;2.50;;
56667;SDS011;42542;48.360;10.958;2023-07-31T02:18:01;7.90;;;2.42;;
56667;SDS011;42542;48.360;10.958;2023-07-31T02:21:05;9.33;;;3.37;;
56667;SDS011;42542;48.360;10.958;2023-07-31T02:24:07;7.03;;;2.38;;
56667;SDS011;42542;48.360;10.958;2023-07-31T02:27:10;9.05;;;2.42;;
56667;SDS011;42542;48.360;10.958;2023-07-31T02:30:13;6.75;;;2.60;;
56667;SDS011;42542;48.360;10.958;2023-07-31T02:33:16;7.35;;;2.53;;
56667;SDS011;42542;48.360;10.958;2023-07-31T02:36:18;7.00;;;2.40;;
56667;SDS011;42542;48.360;10.958;2023-07-31T02:39:20;6.82;;;2.38;;
56667;SDS011;42542;48.360;10.958;2023-07-31T02:42:25;6.75;;;2.70;;
56667;SDS011;42542;48.360;10.958;2023-07-31T02:45:30;6.50;;;2.40;;
56667;SDS011;42542;48.360;10.958;2023-07-31T02:48:32;7.60;;;2.60;;
56667;SDS011;42542;48.360;10.958;2023-07-31T02:51:34;6.17;;;2.43;;
56667;SDS011;42542;48.360;10.958;2023-07-31T02:54:38;7.00;;;2.45;;
56667;SDS011;42542;48.360;10.958;2023-07-31T02:57:41;7.38;;;2.65;;
56667;SDS011;42542;48.360;10.958;2023-07-31T03:00:44;7.43;;;2.80;;
56667;SDS011;42542;48.360;10.958;2023-07-31T03:03:46;7.53;;;2.50;;
56667;SDS011;42542;48.360;10.958;2023-07-31T03:06:49;7.97;;;2.50;;
56667;SDS011;42542;48.360;10.958;2023-07-31T03:09:51;7.43;;;2.90;;
56667;SDS011;42542;48.360;10.958;2023-07-31T03:12:55;7.80;;;2.63;;
56667;SDS011;42542;48.360;10.958;2023-07-31T03:15:56;9.45;;;2.75;;
56667;SDS011;42542;48.360;10.958;2023-07-31T03:18:59;6.67;;;2.50;;
56667;SDS011;42542;48.360;10.958;2023-07-31T03:22:00;7.93;;;2.75;;
56667;SDS011;42542;48.360;10.958;2023-07-31T03:25:04;7.47;;;2.75;;
56667;SDS011;42542;48.360;10.958;2023-07-31T03:28:06;6.38;;;2.53;;
56667;SDS011;42542;48.360;10.958;2023-07-31T03:31:11;8.05;;;2.60;;
56667;SDS011;42542;48.360;10.958;2023-07-31T03:34:13;6.63;;;2.30;;
56667;SDS011;42542;48.360;10.958;2023-07-31T03:37:18;7.97;;;2.70;;
56667;SDS011;42542;48.360;10.958;2023-07-31T03:40:25;8.43;;;2.85;;
56667;SDS011;42542;48.360;10.958;2023-07-31T03:43:29;8.23;;;2.55;;
56667;SDS011;42542;48.360;10.958;2023-07-31T03:46:33;6.45;;;2.40;;
56667;SDS011;42542;48.360;10.958;2023-07-31T03:49:37;6.87;;;2.50;;
56667;SDS011;42542;48.360;10.958;2023-07-31T03:52:42;7.80;;;2.45;;
56667;SDS011;42542;48.360;10.958;2023-07-31T03:55:47;7.90;;;2.50;;
56667;SDS011;42542;48.360;10.958;2023-07-31T03:58:50;7.07;;;2.55;;
56667;SDS011;42542;48.360;10.958;2023-07-31T04:01:56;7.80;;;2.60;;
56667;SDS011;42542;48.360;10.958;2023-07-31T04:05:00;7.20;;;2.53;;
56667;SDS011;42542;48.360;10.958;2023-07-31T04:08:03;7.72;;;2.40;;
56667;SDS011;42542;48.360;10.958;2023-07-31T04:11:04;6.70;;;2.22;;
56667;SDS011;42542;48.360;10.958;2023-07-31T04:14:07;6.03;;;2.50;;
56667;SDS011;42542;48.360;10.958;2023-07-31T04:17:11;7.03;;;2.50;;
56667;SDS011;42542;48.360;10.958;2023-07-31T04:20:13;7.18;;;2.60;;
56667;SDS011;42542;48.360;10.958;2023-07-31T04:23:18;6.78;;;2.55;;
56667;SDS011;42542;48.360;10.958;2023-07-31T04:26:20;8.55;;;2.60;;
56667;SDS011;42542;48.360;10.958;2023-07-31T04:29:22;8.90;;;2.67;;
56667;SDS011;42542;48.360;10.958;2023-07-31T04:32:25;5.97;;;2.28;;
56667;SDS011;42542;48.360;10.958;2023-07-31T04:35:30;6.90;;;2.55;;
56667;SDS011;42542;48.360;10.958;2023-07-31T04:38:32;6.82;;;2.75;;
56667;SDS011;42542;48.360;10.958;2023-07-31T04:41:43;7.53;;;2.57;;
56667;SDS011;42542;48.360;10.958;2023-07-31T04:44:51;6.78;;;2.60;;
56667;SDS011;42542;48.360;10.958;2023-07-31T04:47:56;7.30;;;2.50;;
56667;SDS011;42542;48.360;10.958;2023-07-31T04:50:58;6.47;;;2.70;;
56667;SDS011;42542;48.360;10.958;2023-07-31T04:54:02;7.78;;;2.38;;
56667;SDS011;42542;48.360;10.958;2023-07-31T04:57:04;7.60;;;2.50;;
56667;SDS011;42542;48.360;10.958;2023-07-31T05:00:09;9.80;;;2.72;;
56667;SDS011;42542;48.360;10.958;2023-07-31T05:03:12;8.05;;;2.60;;
56667;SDS011;42542;48.360;10.958;2023-07-31T05:06:17;7.15;;;2.47;;
56667;SDS011;42542;48.360;10.958;2023-07-31T05:09:19;9.03;;;2.77;;
56667;SDS011;42542;48.360;10.958;2023-07-31T05:12:21;7.30;;;2.55;;
56667;SDS011;42542;48.360;10.958;2023-07-31T05:15:23;7.18;;;2.63;;
56667;SDS011;42542;48.360;10.958;2023-07-31T05:18:25;8.15;;;2.53;;
56667;SDS011;42542;48.360;10.958;2023-07-31T05:21:27;6.93;;;2.10;;
56667;SDS011;42542;48.360;10.958;2023-07-31T05:24:33;8.33;;;2.70;;
56667;SDS011;42542;48.360;10.958;2023-07-31T05:27:34;6.45;;;2.30;;
56667;SDS011;42542;48.360;10.958;2023-07-31T05:30:38;8.00;;;2.38;;
56667;SDS011;42542;48.360;10.958;2023-07-31T05:33:39;6.75;;;2.47;;
56667;SDS011;42542;48.360;10.958;2023-07-31T05:36:44;6.27;;;2.40;;
56667;SDS011;42542;48.360;10.958;2023-07-31T05:39:46;9.77;;;2.40;;
56667;SDS011;42542;48.360;10.958;2023-07-31T05:42:48;6.72;;;2.30;;
56667;SDS011;42542;48.360;10.958;2023-07-31T05:45:50;8.27;;;2.58;;
56667;SDS011;42542;48.360;10.958;2023-07-31T05:48:53;7.80;;;2.30;;
56667;SDS011;42542;48.360;10.958;2023-07-31T05:51:55;7.07;;;2.40;;
56667;SDS011;42542;48.360;10.958;2023-07-31T05:54:58;6.32;;;2.33;;
56667;SDS011;42542;48.360;10.958;2023-07-31T05:58:00;6.95;;;2.28;;
56667;SDS011;42542;48.360;10.958;2023-07-31T06:01:02;6.93;;;2.40;;
56667;SDS011;42542;48.360;10.958;2023-07-31T06:04:04;9.00;;;2.58;;
56667;SDS011;42542;48.360;10.958;2023-07-31T06:07:07;5.83;;;2.20;;
56667;SDS011;42542;48.360;10.958;2023-07-31T06:10:08;7.15;;;2.20;;
56667;SDS011;42542;48.360;10.958;2023-07-31T06:13:11;8.18;;;2.20;;
56667;SDS011;42542;48.360;10.958;2023-07-31T06:16:13;8.52;;;2.20;;
56667;SDS011;42542;48.360;10.958;2023-07-31T06:19:16;8.18;;;2.42;;
56667;SDS011;42542;48.360;10.958;2023-07-31T06:22:18;6.37;;;2.10;;
56667;SDS011;42542;48.360;10.958;2023-07-31T06:25:21;6.40;;;2.15;;
56667;SDS011;42542;48.360;10.958;2023-07-31T06:28:29;7.20;;;2.20;;
56667;SDS011;42542;48.360;10.958;2023-07-31T06:31:33;5.97;;;2.20;;
56667;SDS011;42542;48.360;10.958;2023-07-31T06:34:34;7.05;;;2.30;;
56667;SDS011;42542;48.360;10.958;2023-07-31T06:37:37;7.13;;;2.40;;
56667;SDS011;42542;48.360;10.958;2023-07-31T06:40:42;7.38;;;2.10;;
56667;SDS011;42542;48.360;10.958;2023-07-31T06:43:46;8.13;;;2.45;;
56667;SDS011;42542;48.360;10.958;2023-07-31T06:46:47;6.05;;;2.13;;
56667;SDS011;42542;48.360;10.958;2023-07-31T06:49:50;5.75;;;1.95;;
56667;SDS011;42542;48.360;10.958;2023-07-31T06:52:51;7.03;;;2.23;;
56667;SDS011;42542;48.360;10.958;2023-07-31T06:55:54;8.23;;;2.20;;
56667;SDS011;42542;48.360;10.958;2023-07-31T06:58:58;7.25;;;2.13;;
56667;SDS011;42542;48.360;10.958;2023-07-31T07:02:00;6.63;;;2.20;;
56667;SDS011;42542;48.360;10.958;2023-07-31T07:05:07;6.15;;;1.98;;
56667;SDS011;42542;48.360;10.958;2023-07-31T07:08:12;6.40;;;2.00;;
56667;SDS011;42542;48.360;10.958;2023-07-31T07:11:14;9.18;;;2.40;;
56667;SDS011;42542;48.360;10.958;2023-07-31T07:14:17;6.10;;;2.00;;
56667;SDS011;42542;48.360;10.958;2023-07-31T07:17:19;5.20;;;1.88;;
56667;SDS011;42542;48.360;10.958;2023-07-31T07:20:21;7.22;;;1.98;;
56667;SDS011;42542;48.360;10.958;2023-07-31T07:23:23;6.83;;;2.10;;
56667;SDS011;42542;48.360;10.958;2023-07-31T07:26:26;9.30;;;1.95;;
56667;SDS011;42542;48.360;10.958;2023-07-31T07:29:28;6.55;;;2.03;;
56667;SDS011;42542;48.360;10.958;2023-07-31T07:32:32;8.10;;;2.10;;
56667;SDS011;42542;48.360;10.958;2023-07-31T07:35:35;5.38;;;1.75;;
56667;SDS011;42542;48.360;10.958;2023-07-31T07:38:37;7.23;;;1.87;;
56667;SDS011;42542;48.360;10.958;2023-07-31T07:41:41;5.15;;;1.80;;
56667;SDS011;42542;48.360;10.958;2023-07-31T07:44:44;7.65;;;2.00;;
56667;SDS011;42542;48.360;10.958;2023-07-31T07:47:46;6.30;;;1.75;;
56667;SDS011;42542;48.360;10.958;2023-07-31T07:50:48;7.03;;;1.77;;
56667;SDS011;42542;48.360;10.958;2023-07-31T07:53:50;6.27;;;1.90;;
56667;SDS011;42542;48.360;10.958;2023-07-31T07:56:53;5.88;;;1.90;;
56667;SDS011;42542;48.360;10.958;2023-07-31T07:59:57;6.22;;;1.80;;
56667;SDS011;42542;48.360;10.958;2023-07-31T08:03:00;6.45;;;1.75;;
56667;SDS011;42542;48.360;10.958;2023-07-31T08:06:05;5.88;;;1.50;;
56667;SDS011;42542;48.360;10.958;2023-07-31T08:09:07;6.13;;;1.97;;
56667;SDS011;42542;48.360;10.958;2023-07-31T08:12:11;7.10;;;1.80;;
56667;SDS011;42542;48.360;10.958;2023-07-31T08:15:12;6.93;;;2.00;;
56667;SDS011;42542;48.360;10.958;2023-07-31T08:18:15;8.30;;;1.90;;
56667;SDS011;42542;48.360;10.958;2023-07-31T08:21:18;5.88;;;1.80;;
56667;SDS011;42542;48.360;10.958;2023-07-31T08:24:21;6.40;;;1.80;;
56667;SDS011;42542;48.360;10.958;2023-07-31T08:27:23;5.20;;;1.70;;
56667;SDS011;42542;48.360;10.958;2023-07-31T08:30:25;8.27;;;1.90;;
56667;SDS011;42542;48.360;10.958;2023-07-31T08:33:27;5.55;;;1.80;;
56667;SDS011;42542;48.360;10.958;2023-07-31T08:36:31;7.10;;;1.70;;
56667;SDS011;42542;48.360;10.958;2023-07-31T08:39:34;6.50;;;2.00;;
56667;SDS011;42542;48.360;10.958;2023-07-31T08:42:48;6.25;;;1.80;;
56667;SDS011;42542;48.360;10.958;2023-07-31T08:45:53;5.93;;;1.88;;
56667;SDS011;42542;48.360;10.958;2023-07-31T08:48:56;5.68;;;2.13;;
56667;SDS011;42542;48.360;10.958;2023-07-31T08:52:09;8.65;;;2.10;;
56667;SDS011;42542;48.360;10.958;2023-07-31T08:55:12;6.97;;;1.77;;
56667;SDS011;42542;48.360;10.958;2023-07-31T08:58:17;7.43;;;2.20;;
56667;SDS011;42542;48.360;10.958;2023-07-31T09:01:19;5.32;;;1.98;;
56667;SDS011;42542;48.360;10.958;2023-07-31T09:04:21;5.85;;;1.90;;
56667;SDS011;42542;48.360;10.958;2023-07-31T09:07:41;8.05;;;2.30;;
56667;SDS011;42542;48.360;10.958;2023-07-31T09:10:49;5.47;;;1.83;;
56667;SDS011;42542;48.360;10.958;2023-07-31T09:13:56;6.20;;;1.83;;
56667;SDS011;42542;48.360;10.958;2023-07-31T09:17:05;6.70;;;2.00;;
56667;SDS011;42542;48.360;10.958;2023-07-31T09:20:20;5.13;;;1.92;;
56667;SDS011;42542;48.360;10.958;2023-07-31T09:23:24;7.38;;;2.10;;
56667;SDS011;42542;48.360;10.958;2023-07-31T09:26:34;7.80;;;2.23;;
56667;SDS011;42542;48.360;10.958;2023-07-31T09:29:38;6.57;;;1.90;;
56667;SDS011;42542;48.360;10.958;2023-07-31T09:32:40;5.93;;;1.90;;
56667;SDS011;42542;48.360;10.958;2023-07-31T09:35:44;7.63;;;2.03;;
56667;SDS011;42542;48.360;10.958;2023-07-31T09:38:47;5.65;;;2.03;;
56667;SDS011;42542;48.360;10.958;2023-07-31T09:41:55;7.60;;;2.20;;
56667;SDS011;42542;48.360;10.958;2023-07-31T09:45:07;7.88;;;2.00;;
56667;SDS011;42542;48.360;10.958;2023-07-31T09:48:17;8.80;;;2.10;;
56667;SDS011;42542;48.360;10.958;2023-07-31T09:51:26;6.22;;;2.00;;
56667;SDS011;42542;48.360;10.958;2023-07-31T09:54:32;6.35;;;2.00;;
56667;SDS011;42542;48.360;10.958;2023-07-31T09:57:38;7.83;;;1.90;;
56667;SDS011;42542;48.360;10.958;2023-07-31T10:00:42;6.97;;;2.10;;
56667;SDS011;42542;48.360;10.958;2023-07-31T10:03:43;5.95;;;2.00;;
56667;SDS011;42542;48.360;10.958;2023-07-31T10:06:47;6.88;;;1.90;;
56667;SDS011;42542;48.360;10.958;2023-07-31T10:09:51;5.45;;;2.10;;
56667;SDS011;42542;48.360;10.958;2023-07-31T10:12:57;6.13;;;1.80;;
56667;SDS011;42542;48.360;10.958;2023-07-31T10:16:01;5.80;;;1.88;;
56667;SDS011;42542;48.360;10.958;2023-07-31T10:19:05;7.82;;;2.10;;
56667;SDS011;42542;48.360;10.958;2023-07-31T10:22:10;5.90;;;2.05;;
56667;SDS011;42542;48.360;10.958;2023-07-31T10:25:15;5.53;;;1.88;;
56667;SDS011;42542;48.360;10.958;2023-07-31T10:28:18;8.23;;;2.20;;
56667;SDS011;42542;48.360;10.958;2023-07-31T10:31:22;6.35;;;1.80;;
56667;SDS011;42542;48.360;10.958;2023-07-31T10:34:24;6.32;;;2.00;;
56667;SDS011;42542;48.360;10.958;2023-07-31T10:37:27;6.85;;;2.30;;
56667;SDS011;42542;48.360;10.958;2023-07-31T10:40:32;6.90;;;2.10;;
56667;SDS011;42542;48.360;10.958;2023-07-31T10:43:34;7.00;;;2.10;;
56667;SDS011;42542;48.360;10.958;2023-07-31T10:46:40;8.10;;;2.00;;
56667;SDS011;42542;48.360;10.958;2023-07-31T10:49:46;7.00;;;2.20;;
56667;SDS011;42542;48.360;10.958;2023-07-31T10:52:54;5.80;;;1.98;;
56667;SDS011;42542;48.360;10.958;2023-07-31T10:55:58;6.22;;;2.03;;
56667;SDS011;42542;48.360;10.958;2023-07-31T10:59:01;6.53;;;2.20;;
56667;SDS011;42542;48.360;10.958;2023-07-31T11:02:05;6.28;;;2.22;;
56667;SDS011;42542;48.360;10.958;2023-07-31T11:08:50;6.30;;;1.83;;
56667;SDS011;42542;48.360;10.958;2023-07-31T11:11:53;6.40;;;2.20;;
56667;SDS011;42542;48.360;10.958;2023-07-31T11:14:59;5.27;;;1.80;;
56667;SDS011;42542;48.360;10.958;2023-07-31T11:18:01;6.70;;;2.00;;
56667;SDS011;42542;48.360;10.958;2023-07-31T11:21:14;7.13;;;2.20;;
56667;SDS011;42542;48.360;10.958;2023-07-31T11:24:17;10.50;;;2.22;;
56667;SDS011;42542;48.360;10.958;2023-07-31T11:27:19;6.22;;;2.10;;
56667;SDS011;42542;48.360;10.958;2023-07-31T11:30:21;6.10;;;2.03;;
56667;SDS011;42542;48.360;10.958;2023-07-31T11:33:23;6.68;;;2.13;;
56667;SDS011;42542;48.360;10.958;2023-07-31T11:36:25;5.65;;;1.90;;
56667;SDS011;42542;48.360;10.958;2023-07-31T11:39:28;5.75;;;2.10;;
56667;SDS011;42542;48.360;10.958;2023-07-31T11:42:34;7.07;;;2.00;;
56667;SDS011;42542;48.360;10.958;2023-07-31T11:45:40;6.80;;;2.57;;
56667;SDS011;42542;48.360;10.958;2023-07-31T11:48:42;5.07;;;1.90;;
56667;SDS011;42542;48.360;10.958;2023-07-31T11:51:46;6.22;;;2.40;;
56667;SDS011;42542;48.360;10.958;2023-07-31T11:54:48;7.43;;;1.90;;
56667;SDS011;42542;48.360;10.958;2023-07-31T11:57:54;5.55;;;1.80;;
56667;SDS011;42542;48.360;10.958;2023-07-31T12:00:58;6.67;;;2.23;;
56667;SDS011;42542;48.360;10.958;2023-07-31T12:04:01;5.82;;;1.98;;
56667;SDS011;42542;48.360;10.958;2023-07-31T12:07:05;6.22;;;1.98;;
56667;SDS011;42542;48.360;10.958;2023-07-31T12:10:09;6.25;;;2.00;;
56667;SDS011;42542;48.360;10.958;2023-07-31T12:13:12;6.18;;;2.15;;
56667;SDS011;42542;48.360;10.958;2023-07-31T12:16:25;6.60;;;2.00;;
56667;SDS011;42542;48.360;10.958;2023-07-31T12:19:29;7.43;;;2.10;;
56667;SDS011;42542;48.360;10.958;2023-07-31T12:22:33;6.10;;;2.10;;
56667;SDS011;42542;48.360;10.958;2023-07-31T12:25:35;6.43;;;2.00;;
56667;SDS011;42542;48.360;10.958;2023-07-31T12:28:48;7.13;;;1.90;;
56667;SDS011;42542;48.360;10.958;2023-07-31T12:31:51;5.17;;;1.90;;
56667;SDS011;42542;48.360;10.958;2023-07-31T12:34:59;5.65;;;2.00;;
56667;SDS011;42542;48.360;10.958;2023-07-31T12:38:03;6.22;;;1.80;;
56667;SDS011;42542;48.360;10.958;2023-07-31T12:41:06;5.07;;;2.00;;
56667;SDS011;42542;48.360;10.958;2023-07-31T12:44:08;7.38;;;1.98;;
56667;SDS011;42542;48.360;10.958;2023-07-31T12:47:11;7.30;;;2.17;;
56667;SDS011;42542;48.360;10.958;2023-07-31T12:50:13;6.30;;;2.00;;
56667;SDS011;42542;48.360;10.958;2023-07-31T12:53:17;6.78;;;2.05;;
56667;SDS011;42542;48.360;10.958;2023-07-31T12:56:18;6.53;;;2.05;;
56667;SDS011;42542;48.360;10.958;2023-07-31T12:59:21;5.95;;;2.13;;
56667;SDS011;42542;48.360;10.958;2023-07-31T13:02:26;4.90;;;1.80;;
56667;SDS011;42542;48.360;10.958;2023-07-31T13:05:29;5.78;;;2.20;;
56667;SDS011;42542;48.360;10.958;2023-07-31T13:08:31;6.38;;;2.33;;
56667;SDS011;42542;48.360;10.958;2023-07-31T13:11:34;6.28;;;1.90;;
56667;SDS011;42542;48.360;10.958;2023-07-31T13:14:39;5.72;;;1.70;;
56667;SDS011;42542;48.360;10.958;2023-07-31T13:17:41;5.43;;;1.83;;
56667;SDS011;42542;48.360;10.958;2023-07-31T13:20:43;5.55;;;2.00;;
56667;SDS011;42542;48.360;10.958;2023-07-31T13:23:47;6.82;;;2.20;;
56667;SDS011;42542;48.360;10.958;2023-07-31T13:26:50;9.90;;;2.33;;
56667;SDS011;42542;48.360;10.958;2023-07-31T13:29:52;6.43;;;2.10;;
56667;SDS011;42542;48.360;10.958;2023-07-31T13:32:55;7.97;;;2.13;;
56667;SDS011;42542;48.360;10.958;2023-07-31T13:35:57;6.00;;;1.90;;
56667;SDS011;42542;48.360;10.958;2023-07-31T13:39:02;5.57;;;2.10;;
56667;SDS011;42542;48.360;10.958;2023-07-31T13:42:06;5.30;;;1.77;;
56667;SDS011;42542;48.360;10.958;2023-07-31T13:45:10;6.13;;;2.25;;
56667;SDS011;42542;48.360;10.958;2023-07-31T13:48:13;7.33;;;2.17;;
56667;SDS011;42542;48.360;10.958;2023-07-31T13:51:16;6.45;;;2.08;;
56667;SDS011;42542;48.360;10.958;2023-07-31T13:54:19;6.10;;;2.05;;
56667;SDS011;42542;48.360;10.958;2023-07-31T13:57:20;5.38;;;2.00;;
56667;SDS011;42542;48.360;10.958;2023-07-31T14:00:23;6.72;;;2.08;;
56667;SDS011;42542;48.360;10.958;2023-07-31T14:03:24;7.97;;;2.13;;
56667;SDS011;42542;48.360;10.958;2023-07-31T14:06:26;6.18;;;2.03;;
56667;SDS011;42542;48.360;10.958;2023-07-31T14:09:28;6.97;;;2.03;;
56667;SDS011;42542;48.360;10.958;2023-07-31T14:12:32;5.53;;;1.80;;
56667;SDS011;42542;48.360;10.958;2023-07-31T14:15:43;6.45;;;2.00;;
56667;SDS011;42542;48.360;10.958;2023-07-31T14:18:47;6.13;;;1.90;;
56667;SDS011;42542;48.360;10.958;2023-07-31T14:21:49;6.50;;;2.10;;
56667;SDS011;42542;48.360;10.958;2023-07-31T14:25:10;8.25;;;2.15;;
56667;SDS011;42542;48.360;10.958;2023-07-31T14:28:15;6.15;;;2.00;;
56667;SDS011;42542;48.360;10.958;2023-07-31T14:31:17;8.20;;;2.20;;
56667;SDS011;42542;48.360;10.958;2023-07-31T14:34:19;6.90;;;2.17;;
56667;SDS011;42542;48.360;10.958;2023-07-31T14:37:20;5.15;;;1.90;;
56667;SDS011;42542;48.360;10.958;2023-07-31T14:40:25;6.78;;;2.50;;
56667;SDS011;42542;48.360;10.958;2023-07-31T14:43:28;8.10;;;2.92;;
56667;SDS011;42542;48.360;10.958;2023-07-31T14:46:30;6.40;;;2.30;;
56667;SDS011;42542;48.360;10.958;2023-07-31T14:49:34;5.30;;;2.00;;
56667;SDS011;42542;48.360;10.958;2023-07-31T14:52:36;6.55;;;2.25;;
56667;SDS011;42542;48.360;10.958;2023-07-31T14:55:41;6.82;;;2.40;;
56667;SDS011;42542;48.360;10.958;2023-07-31T14:58:43;6.93;;;2.30;;
56667;SDS011;42542;48.360;10.958;2023-07-31T15:01:49;7.93;;;2.30;;
56667;SDS011;42542;48.360;10.958;2023-07-31T15:04:55;6.90;;;2.13;;
56667;SDS011;42542;48.360;10.958;2023-07-31T15:07:58;6.43;;;2.20;;
56667;SDS011;42542;48.360;10.958;2023-07-31T15:11:02;5.72;;;2.13;;
56667;SDS011;42542;48.360;10.958;2023-07-31T15:14:07;8.13;;;2.22;;
56667;SDS011;42542;48.360;10.958;2023-07-31T15:17:09;6.60;;;2.15;;
56667;SDS011;42542;48.360;10.958;2023-07-31T15:20:13;6.40;;;2.10;;
56667;SDS011;42542;48.360;10.958;2023-07-31T15:23:16;7.18;;;2.42;;
56667;SDS011;42542;48.360;10.958;2023-07-31T15:26:18;8.38;;;2.20;;
56667;SDS011;42542;48.360;10.958;2023-07-31T15:29:20;6.07;;;2.15;;
56667;SDS011;42542;48.360;10.958;2023-07-31T15:32:22;7.30;;;2.30;;
56667;SDS011;42542;48.360;10.958;2023-07-31T15:35:24;6.30;;;2.10;;
56667;SDS011;42542;48.360;10.958;2023-07-31T15:38:27;6.80;;;2.00;;
56667;SDS011;42542;48.360;10.958;2023-07-31T15:41:28;7.18;;;2.28;;
56667;SDS011;42542;48.360;10.958;2023-07-31T15:44:31;6.13;;;2.03;;
56667;SDS011;42542;48.360;10.958;2023-07-31T15:47:34;7.25;;;2.20;;
56667;SDS011;42542;48.360;10.958;2023-07-31T15:50:37;7.50;;;2.50;;
56667;SDS011;42542;48.360;10.958;2023-07-31T15:53:41;8.27;;;2.33;;
56667;SDS011;42542;48.360;10.958;2023-07-31T15:56:44;7.15;;;2.55;;
56667;SDS011;42542;48.360;10.958;2023-07-31T15:59:45;6.90;;;2.45;;
56667;SDS011;42542;48.360;10.958;2023-07-31T16:02:49;9.05;;;3.15;;
56667;SDS011;42542;48.360;10.958;2023-07-31T16:05:50;7.80;;;3.60;;
56667;SDS011;42542;48.360;10.958;2023-07-31T16:08:55;8.68;;;2.97;;
56667;SDS011;42542;48.360;10.958;2023-07-31T16:11:57;7.68;;;2.60;;
56667;SDS011;42542;48.360;10.958;2023-07-31T16:15:01;7.55;;;2.92;;
56667;SDS011;42542;48.360;10.958;2023-07-31T16:18:05;8.20;;;3.05;;
56667;SDS011;42542;48.360;10.958;2023-07-31T16:21:08;7.13;;;2.40;;
56667;SDS011;42542;48.360;10.958;2023-07-31T16:24:10;6.40;;;2.45;;
56667;SDS011;42542;48.360;10.958;2023-07-31T16:27:12;6.57;;;2.38;;
56667;SDS011;42542;48.360;10.958;2023-07-31T16:30:15;7.47;;;2.53;;
56667;SDS011;42542;48.360;10.958;2023-07-31T16:33:18;6.28;;;2.20;;
56667;SDS011;42542;48.360;10.958;2023-07-31T16:36:20;6.37;;;2.40;;
56667;SDS011;42542;48.360;10.958;2023-07-31T16:39:23;7.55;;;2.45;;
56667;SDS011;42542;48.360;10.958;2023-07-31T16:42:26;7.57;;;2.38;;
56667;SDS011;42542;48.360;10.958;2023-07-31T16:45:28;7.78;;;2.80;;
56667;SDS011;42542;48.360;10.958;2023-07-31T16:48:30;8.18;;;2.50;;
56667;SDS011;42542;48.360;10.958;2023-07-31T16:51:32;7.03;;;2.27;;
56667;SDS011;42542;48.360;10.958;2023-07-31T16:54:35;7.38;;;2.42;;
56667;SDS011;42542;48.360;10.958;2023-07-31T16:57:39;6.10;;;2.50;;
56667;SDS011;42542;48.360;10.958;2023-07-31T17:00:41;8.32;;;2.45;;
56667;SDS011;42542;48.360;10.958;2023-07-31T17:03:43;5.95;;;2.20;;
56667;SDS011;42542;48.360;10.958;2023-07-31T17:06:46;6.70;;;2.57;;
56667;SDS011;42542;48.360;10.958;2023-07-31T17:09:47;6.32;;;2.10;;
56667;SDS011;42542;48.360;10.958;2023-07-31T17:12:49;6.63;;;2.30;;
56667;SDS011;42542;48.360;10.958;2023-07-31T17:15:51;7.22;;;2.35;;
56667;SDS011;42542;48.360;10.958;2023-07-31T17:18:53;7.07;;;2.35;;
56667;SDS011;42542;48.360;10.958;2023-07-31T17:21:55;7.83;;;2.70;;
56667;SDS011;42542;48.360;10.958;2023-07-31T17:24:58;9.40;;;2.55;;
56667;SDS011;42542;48.360;10.958;2023-07-31T17:28:01;9.77;;;2.63;;
56667;SDS011;42542;48.360;10.958;2023-07-31T17:31:04;8.32;;;2.60;;
56667;SDS011;42542;48.360;10.958;2023-07-31T17:34:07;6.93;;;2.53;;
56667;SDS011;42542;48.360;10.958;2023-07-31T17:37:09;7.37;;;2.67;;
56667;SDS011;42542;48.360;10.958;2023-07-31T17:40:12;6.60;;;2.50;;
56667;SDS011;42542;48.360;10.958;2023-07-31T17:43:15;10.65;;;2.50;;
56667;SDS011;42542;48.360;10.958;2023-07-31T17:46:18;7.78;;;2.40;;
56667;SDS011;42542;48.360;10.958;2023-07-31T17:49:20;6.88;;;2.40;;
56667;SDS011;42542;48.360;10.958;2023-07-31T17:52:23;7.87;;;2.50;;
56667;SDS011;42542;48.360;10.958;2023-07-31T17:55:28;8.88;;;2.72;;
56667;SDS011;42542;48.360;10.958;2023-07-31T17:58:30;9.55;;;2.90;;
56667;SDS011;42542;48.360;10.958;2023-07-31T18:01:32;7.03;;;2.53;;
56667;SDS011;42542;48.360;10.958;2023-07-31T18:04:38;7.30;;;2.47;;
56667;SDS011;42542;48.360;10.958;2023-07-31T18:07:40;6.27;;;2.40;;
56667;SDS011;42542;48.360;10.958;2023-07-31T18:10:46;6.57;;;2.58;;
56667;SDS011;42542;48.360;10.958;2023-07-31T18:13:51;7.35;;;2.55;;
56667;SDS011;42542;48.360;10.958;2023-07-31T18:16:52;8.02;;;2.78;;
56667;SDS011;42542;48.360;10.958;2023-07-31T18:19:56;8.13;;;2.72;;
56667;SDS011;42542;48.360;10.958;2023-07-31T18:22:59;7.93;;;2.40;;
56667;SDS011;42542;48.360;10.958;2023-07-31T18:26:02;7.15;;;2.60;;